sensor_id;sensor_type;location;lat;lon;timestamp;P1;durP1;ratioP1;P2;durP2;ratioP2
44764;SDS011;30484;52.382;5.260;2023-04-16T00:00:08;11.50;;;3.00;;
44764;SDS011;30484;52.382;5.260;2023-04-16T00:02:41;9.00;;;2.80;;
44764;SDS011;30484;52.382;5.260;2023-04-16T00:05:12;9.48;;;2.80;;
44764;SDS011;30484;52.382;5.260;2023-04-16T00:07:42;14.23;;;2.92;;
44764;SDS011;30484;52.382;5.260;2023-04-16T00:10:14;12.43;;;3.30;;
44764;SDS011;30484;52.382;5.260;2023-04-16T00:12:43;11.63;;;2.90;;
44764;SDS011;30484;52.382;5.260;2023-04-16T00:15:14;20.77;;;2.70;;
44764;SDS011;30484;52.382;5.260;2023-04-16T00:17:43;9.68;;;2.40;;
44764;SDS011;30484;52.382;5.260;2023-04-16T00:20:16;10.38;;;2.63;;
44764;SDS011;30484;52.382;5.260;2023-04-16T00:22:45;11.25;;;2.40;;
44764;SDS011;30484;52.382;5.260;2023-04-16T00:25:14;11.02;;;2.53;;
44764;SDS011;30484;52.382;5.260;2023-04-16T00:27:43;10.18;;;2.50;;
44764;SDS011;30484;52.382;5.260;2023-04-16T00:30:12;8.80;;;2.45;;
44764;SDS011;30484;52.382;5.260;2023-04-16T00:32:42;16.10;;;2.80;;
44764;SDS011;30484;52.382;5.260;2023-04-16T00:35:11;14.73;;;3.17;;
44764;SDS011;30484;52.382;5.260;2023-04-16T00:37:42;8.38;;;2.67;;
44764;SDS011;30484;52.382;5.260;2023-04-16T00:40:12;16.38;;;3.35;;
44764;SDS011;30484;52.382;5.260;2023-04-16T00:42:41;13.15;;;2.47;;
44764;SDS011;30484;52.382;5.260;2023-04-16T00:45:15;11.32;;;2.40;;
44764;SDS011;30484;52.382;5.260;2023-04-16T00:47:44;13.88;;;2.80;;
44764;SDS011;30484;52.382;5.260;2023-04-16T00:50:13;11.75;;;3.00;;
44764;SDS011;30484;52.382;5.260;2023-04-16T00:52:46;7.82;;;2.80;;
44764;SDS011;30484;52.382;5.260;2023-04-16T00:55:17;14.35;;;2.90;;
44764;SDS011;30484;52.382;5.260;2023-04-16T00:57:54;8.27;;;2.90;;
44764;SDS011;30484;52.382;5.260;2023-04-16T01:00:31;13.00;;;3.65;;
44764;SDS011;30484;52.382;5.260;2023-04-16T01:03:04;11.15;;;3.47;;
44764;SDS011;30484;52.382;5.260;2023-04-16T01:05:34;12.85;;;4.13;;
44764;SDS011;30484;52.382;5.260;2023-04-16T01:08:04;13.25;;;3.70;;
44764;SDS011;30484;52.382;5.260;2023-04-16T01:10:35;13.48;;;3.70;;
44764;SDS011;30484;52.382;5.260;2023-04-16T01:13:04;14.23;;;3.70;;
44764;SDS011;30484;52.382;5.260;2023-04-16T01:15:35;10.43;;;3.50;;
44764;SDS011;30484;52.382;5.260;2023-04-16T01:18:11;11.82;;;3.45;;
44764;SDS011;30484;52.382;5.260;2023-04-16T01:20:44;19.23;;;4.70;;
44764;SDS011;30484;52.382;5.260;2023-04-16T01:23:14;13.55;;;3.70;;
44764;SDS011;30484;52.382;5.260;2023-04-16T01:25:46;12.98;;;3.88;;
44764;SDS011;30484;52.382;5.260;2023-04-16T01:28:18;16.30;;;4.93;;
44764;SDS011;30484;52.382;5.260;2023-04-16T01:30:48;21.27;;;5.95;;
44764;SDS011;30484;52.382;5.260;2023-04-16T01:33:18;21.95;;;4.93;;
44764;SDS011;30484;52.382;5.260;2023-04-16T01:35:51;16.23;;;5.43;;
44764;SDS011;30484;52.382;5.260;2023-04-16T01:38:21;22.83;;;7.07;;
44764;SDS011;30484;52.382;5.260;2023-04-16T01:40:54;20.65;;;6.43;;
44764;SDS011;30484;52.382;5.260;2023-04-16T01:43:24;16.60;;;6.28;;
44764;SDS011;30484;52.382;5.260;2023-04-16T01:46:07;16.58;;;5.78;;
44764;SDS011;30484;52.382;5.260;2023-04-16T01:48:46;16.60;;;5.65;;
44764;SDS011;30484;52.382;5.260;2023-04-16T01:51:23;20.10;;;6.72;;
44764;SDS011;30484;52.382;5.260;2023-04-16T01:53:59;24.42;;;6.90;;
44764;SDS011;30484;52.382;5.260;2023-04-16T01:56:32;29.33;;;7.07;;
44764;SDS011;30484;52.382;5.260;2023-04-16T01:59:02;22.83;;;7.32;;
44764;SDS011;30484;52.382;5.260;2023-04-16T02:01:35;25.83;;;8.30;;
44764;SDS011;30484;52.382;5.260;2023-04-16T02:04:10;26.40;;;7.72;;
44764;SDS011;30484;52.382;5.260;2023-04-16T02:06:45;24.98;;;9.02;;
44764;SDS011;30484;52.382;5.260;2023-04-16T02:09:19;27.23;;;8.73;;
44764;SDS011;30484;52.382;5.260;2023-04-16T02:12:18;24.48;;;8.20;;
44764;SDS011;30484;52.382;5.260;2023-04-16T02:14:53;25.15;;;7.93;;
44764;SDS011;30484;52.382;5.260;2023-04-16T02:17:23;30.02;;;8.60;;
44764;SDS011;30484;52.382;5.260;2023-04-16T02:19:54;28.58;;;8.60;;
44764;SDS011;30484;52.382;5.260;2023-04-16T02:22:43;34.33;;;9.05;;
44764;SDS011;30484;52.382;5.260;2023-04-16T02:25:12;26.90;;;8.00;;
44764;SDS011;30484;52.382;5.260;2023-04-16T02:27:41;27.88;;;7.82;;
44764;SDS011;30484;52.382;5.260;2023-04-16T02:30:19;29.70;;;7.38;;
44764;SDS011;30484;52.382;5.260;2023-04-16T02:32:51;34.05;;;8.25;;
44764;SDS011;30484;52.382;5.260;2023-04-16T02:35:22;32.67;;;8.10;;
44764;SDS011;30484;52.382;5.260;2023-04-16T02:37:54;30.27;;;8.45;;
44764;SDS011;30484;52.382;5.260;2023-04-16T02:40:24;29.67;;;7.90;;
44764;SDS011;30484;52.382;5.260;2023-04-16T02:42:56;25.60;;;7.82;;
44764;SDS011;30484;52.382;5.260;2023-04-16T02:45:26;27.13;;;9.13;;
44764;SDS011;30484;52.382;5.260;2023-04-16T02:47:58;28.80;;;8.60;;
44764;SDS011;30484;52.382;5.260;2023-04-16T02:50:46;31.33;;;8.70;;
44764;SDS011;30484;52.382;5.260;2023-04-16T02:53:22;25.55;;;8.98;;
44764;SDS011;30484;52.382;5.260;2023-04-16T02:56:14;27.23;;;9.38;;
44764;SDS011;30484;52.382;5.260;2023-04-16T02:58:54;31.20;;;10.02;;
44764;SDS011;30484;52.382;5.260;2023-04-16T03:01:34;28.48;;;10.48;;
44764;SDS011;30484;52.382;5.260;2023-04-16T03:04:24;35.33;;;10.68;;
44764;SDS011;30484;52.382;5.260;2023-04-16T03:06:54;41.22;;;9.88;;
44764;SDS011;30484;52.382;5.260;2023-04-16T03:09:25;30.92;;;9.70;;
44764;SDS011;30484;52.382;5.260;2023-04-16T03:11:54;31.73;;;11.80;;
44764;SDS011;30484;52.382;5.260;2023-04-16T03:14:26;30.30;;;10.98;;
44764;SDS011;30484;52.382;5.260;2023-04-16T03:16:56;29.80;;;11.68;;
44764;SDS011;30484;52.382;5.260;2023-04-16T03:19:28;31.23;;;11.05;;
44764;SDS011;30484;52.382;5.260;2023-04-16T03:22:00;38.20;;;11.63;;
44764;SDS011;30484;52.382;5.260;2023-04-16T03:24:31;32.25;;;11.13;;
44764;SDS011;30484;52.382;5.260;2023-04-16T03:27:03;37.95;;;11.30;;
44764;SDS011;30484;52.382;5.260;2023-04-16T03:29:35;35.22;;;10.30;;
44764;SDS011;30484;52.382;5.260;2023-04-16T03:32:08;32.60;;;10.13;;
44764;SDS011;30484;52.382;5.260;2023-04-16T03:34:38;28.17;;;10.65;;
44764;SDS011;30484;52.382;5.260;2023-04-16T03:37:08;27.65;;;10.25;;
44764;SDS011;30484;52.382;5.260;2023-04-16T03:39:40;35.67;;;10.30;;
44764;SDS011;30484;52.382;5.260;2023-04-16T03:42:10;33.88;;;10.10;;
44764;SDS011;30484;52.382;5.260;2023-04-16T03:44:40;30.50;;;9.50;;
44764;SDS011;30484;52.382;5.260;2023-04-16T03:47:10;29.73;;;9.65;;
44764;SDS011;30484;52.382;5.260;2023-04-16T03:49:40;33.90;;;9.38;;
44764;SDS011;30484;52.382;5.260;2023-04-16T03:52:09;33.95;;;10.32;;
44764;SDS011;30484;52.382;5.260;2023-04-16T03:54:39;26.60;;;9.40;;
44764;SDS011;30484;52.382;5.260;2023-04-16T03:57:08;33.85;;;9.77;;
44764;SDS011;30484;52.382;5.260;2023-04-16T03:59:36;25.23;;;8.82;;
44764;SDS011;30484;52.382;5.260;2023-04-16T04:02:05;26.02;;;10.07;;
44764;SDS011;30484;52.382;5.260;2023-04-16T04:04:35;31.88;;;9.57;;
44764;SDS011;30484;52.382;5.260;2023-04-16T04:07:04;29.00;;;10.20;;
44764;SDS011;30484;52.382;5.260;2023-04-16T04:09:33;31.15;;;10.32;;
44764;SDS011;30484;52.382;5.260;2023-04-16T04:12:04;36.72;;;11.23;;
44764;SDS011;30484;52.382;5.260;2023-04-16T04:14:33;29.67;;;10.30;;
44764;SDS011;30484;52.382;5.260;2023-04-16T04:17:05;28.73;;;9.82;;
44764;SDS011;30484;52.382;5.260;2023-04-16T04:19:37;28.92;;;9.82;;
44764;SDS011;30484;52.382;5.260;2023-04-16T04:22:20;24.98;;;9.52;;
44764;SDS011;30484;52.382;5.260;2023-04-16T04:24:51;27.20;;;10.18;;
44764;SDS011;30484;52.382;5.260;2023-04-16T04:27:23;27.75;;;10.43;;
44764;SDS011;30484;52.382;5.260;2023-04-16T04:29:54;30.17;;;11.35;;
44764;SDS011;30484;52.382;5.260;2023-04-16T04:32:23;33.00;;;11.27;;
44764;SDS011;30484;52.382;5.260;2023-04-16T04:34:55;37.78;;;11.68;;
44764;SDS011;30484;52.382;5.260;2023-04-16T04:37:25;31.85;;;12.18;;
44764;SDS011;30484;52.382;5.260;2023-04-16T04:39:55;35.13;;;11.45;;
44764;SDS011;30484;52.382;5.260;2023-04-16T04:42:25;44.75;;;12.60;;
44764;SDS011;30484;52.382;5.260;2023-04-16T04:44:54;38.90;;;11.45;;
44764;SDS011;30484;52.382;5.260;2023-04-16T04:47:23;36.90;;;11.75;;
44764;SDS011;30484;52.382;5.260;2023-04-16T04:49:54;32.97;;;11.48;;
44764;SDS011;30484;52.382;5.260;2023-04-16T04:52:25;36.40;;;11.77;;
44764;SDS011;30484;52.382;5.260;2023-04-16T04:54:54;28.17;;;11.27;;
44764;SDS011;30484;52.382;5.260;2023-04-16T04:57:28;33.47;;;12.00;;
44764;SDS011;30484;52.382;5.260;2023-04-16T05:00:01;28.52;;;11.77;;
44764;SDS011;30484;52.382;5.260;2023-04-16T05:02:32;37.33;;;12.13;;
44764;SDS011;30484;52.382;5.260;2023-04-16T05:05:02;36.08;;;11.57;;
44764;SDS011;30484;52.382;5.260;2023-04-16T05:07:41;43.83;;;12.20;;
44764;SDS011;30484;52.382;5.260;2023-04-16T05:10:11;41.85;;;12.07;;
44764;SDS011;30484;52.382;5.260;2023-04-16T05:12:49;37.22;;;11.80;;
44764;SDS011;30484;52.382;5.260;2023-04-16T05:15:23;39.00;;;12.70;;
44764;SDS011;30484;52.382;5.260;2023-04-16T05:17:53;35.45;;;12.10;;
44764;SDS011;30484;52.382;5.260;2023-04-16T05:20:24;33.72;;;11.38;;
44764;SDS011;30484;52.382;5.260;2023-04-16T05:22:56;35.97;;;11.45;;
44764;SDS011;30484;52.382;5.260;2023-04-16T05:25:33;39.78;;;12.23;;
44764;SDS011;30484;52.382;5.260;2023-04-16T05:28:04;49.15;;;12.55;;
44764;SDS011;30484;52.382;5.260;2023-04-16T05:30:33;33.03;;;12.75;;
44764;SDS011;30484;52.382;5.260;2023-04-16T05:33:03;39.15;;;12.57;;
44764;SDS011;30484;52.382;5.260;2023-04-16T05:35:35;34.75;;;13.80;;
44764;SDS011;30484;52.382;5.260;2023-04-16T05:38:06;35.72;;;13.80;;
44764;SDS011;30484;52.382;5.260;2023-04-16T05:40:35;34.22;;;13.68;;
44764;SDS011;30484;52.382;5.260;2023-04-16T05:43:07;35.00;;;13.70;;
44764;SDS011;30484;52.382;5.260;2023-04-16T05:45:35;35.97;;;14.15;;
44764;SDS011;30484;52.382;5.260;2023-04-16T05:48:09;38.22;;;13.05;;
44764;SDS011;30484;52.382;5.260;2023-04-16T05:50:39;32.60;;;12.70;;
44764;SDS011;30484;52.382;5.260;2023-04-16T05:53:09;32.90;;;12.98;;
44764;SDS011;30484;52.382;5.260;2023-04-16T05:55:41;34.42;;;13.07;;
44764;SDS011;30484;52.382;5.260;2023-04-16T05:58:16;27.90;;;12.82;;
44764;SDS011;30484;52.382;5.260;2023-04-16T06:00:47;33.17;;;13.70;;
44764;SDS011;30484;52.382;5.260;2023-04-16T06:03:17;33.42;;;12.93;;
44764;SDS011;30484;52.382;5.260;2023-04-16T06:05:47;34.10;;;14.68;;
44764;SDS011;30484;52.382;5.260;2023-04-16T06:08:25;40.05;;;15.15;;
44764;SDS011;30484;52.382;5.260;2023-04-16T06:10:55;30.45;;;14.98;;
44764;SDS011;30484;52.382;5.260;2023-04-16T06:13:25;35.47;;;14.15;;
44764;SDS011;30484;52.382;5.260;2023-04-16T06:15:54;39.38;;;15.18;;
44764;SDS011;30484;52.382;5.260;2023-04-16T06:18:25;37.28;;;15.65;;
44764;SDS011;30484;52.382;5.260;2023-04-16T06:20:57;36.25;;;15.07;;
44764;SDS011;30484;52.382;5.260;2023-04-16T06:23:30;41.45;;;14.75;;
44764;SDS011;30484;52.382;5.260;2023-04-16T06:26:00;38.38;;;15.60;;
44764;SDS011;30484;52.382;5.260;2023-04-16T06:28:33;34.47;;;13.23;;
44764;SDS011;30484;52.382;5.260;2023-04-16T06:31:02;30.23;;;13.63;;
44764;SDS011;30484;52.382;5.260;2023-04-16T06:33:34;25.15;;;11.55;;
44764;SDS011;30484;52.382;5.260;2023-04-16T06:36:07;31.33;;;11.07;;
44764;SDS011;30484;52.382;5.260;2023-04-16T06:38:37;25.70;;;10.60;;
44764;SDS011;30484;52.382;5.260;2023-04-16T06:41:06;30.25;;;11.85;;
44764;SDS011;30484;52.382;5.260;2023-04-16T06:43:37;29.48;;;12.68;;
44764;SDS011;30484;52.382;5.260;2023-04-16T06:46:08;27.42;;;12.27;;
44764;SDS011;30484;52.382;5.260;2023-04-16T06:48:39;28.88;;;12.00;;
44764;SDS011;30484;52.382;5.260;2023-04-16T06:51:30;27.88;;;11.10;;
44764;SDS011;30484;52.382;5.260;2023-04-16T06:54:00;23.27;;;10.13;;
44764;SDS011;30484;52.382;5.260;2023-04-16T06:56:28;21.52;;;9.60;;
44764;SDS011;30484;52.382;5.260;2023-04-16T06:59:02;23.75;;;9.68;;
44764;SDS011;30484;52.382;5.260;2023-04-16T07:01:34;22.05;;;8.60;;
44764;SDS011;30484;52.382;5.260;2023-04-16T07:04:04;17.52;;;8.88;;
44764;SDS011;30484;52.382;5.260;2023-04-16T07:06:33;17.02;;;7.22;;
44764;SDS011;30484;52.382;5.260;2023-04-16T07:09:03;18.40;;;7.22;;
44764;SDS011;30484;52.382;5.260;2023-04-16T07:11:32;14.07;;;6.80;;
44764;SDS011;30484;52.382;5.260;2023-04-16T07:14:04;12.43;;;6.40;;
44764;SDS011;30484;52.382;5.260;2023-04-16T07:16:34;15.20;;;7.30;;
44764;SDS011;30484;52.382;5.260;2023-04-16T07:19:07;18.35;;;7.00;;
44764;SDS011;30484;52.382;5.260;2023-04-16T07:21:39;14.00;;;6.97;;
44764;SDS011;30484;52.382;5.260;2023-04-16T07:24:10;10.48;;;5.97;;
44764;SDS011;30484;52.382;5.260;2023-04-16T07:26:40;16.23;;;7.65;;
44764;SDS011;30484;52.382;5.260;2023-04-16T07:29:11;12.27;;;6.10;;
44764;SDS011;30484;52.382;5.260;2023-04-16T07:31:43;10.38;;;5.55;;
44764;SDS011;30484;52.382;5.260;2023-04-16T07:34:14;11.52;;;5.95;;
44764;SDS011;30484;52.382;5.260;2023-04-16T07:36:46;12.98;;;6.15;;
44764;SDS011;30484;52.382;5.260;2023-04-16T07:39:15;13.95;;;6.15;;
44764;SDS011;30484;52.382;5.260;2023-04-16T07:41:44;13.07;;;5.95;;
44764;SDS011;30484;52.382;5.260;2023-04-16T07:44:15;12.75;;;5.68;;
44764;SDS011;30484;52.382;5.260;2023-04-16T07:46:47;11.15;;;6.22;;
44764;SDS011;30484;52.382;5.260;2023-04-16T07:49:24;12.90;;;6.00;;
44764;SDS011;30484;52.382;5.260;2023-04-16T07:51:52;15.45;;;5.97;;
44764;SDS011;30484;52.382;5.260;2023-04-16T07:54:23;19.95;;;5.90;;
44764;SDS011;30484;52.382;5.260;2023-04-16T07:56:57;10.02;;;5.18;;
44764;SDS011;30484;52.382;5.260;2023-04-16T07:59:28;12.55;;;5.68;;
44764;SDS011;30484;52.382;5.260;2023-04-16T08:01:58;13.32;;;5.88;;
44764;SDS011;30484;52.382;5.260;2023-04-16T08:04:30;8.50;;;5.63;;
44764;SDS011;30484;52.382;5.260;2023-04-16T08:06:59;10.75;;;5.45;;
44764;SDS011;30484;52.382;5.260;2023-04-16T08:09:28;13.52;;;5.97;;
44764;SDS011;30484;52.382;5.260;2023-04-16T08:12:00;12.65;;;5.30;;
44764;SDS011;30484;52.382;5.260;2023-04-16T08:14:32;8.77;;;5.03;;
44764;SDS011;30484;52.382;5.260;2023-04-16T08:17:00;10.27;;;4.93;;
44764;SDS011;30484;52.382;5.260;2023-04-16T08:19:29;10.85;;;4.20;;
44764;SDS011;30484;52.382;5.260;2023-04-16T08:21:58;7.63;;;4.88;;
44764;SDS011;30484;52.382;5.260;2023-04-16T08:24:27;11.63;;;4.70;;
44764;SDS011;30484;52.382;5.260;2023-04-16T08:26:55;8.13;;;3.75;;
44764;SDS011;30484;52.382;5.260;2023-04-16T08:29:42;9.05;;;3.72;;
44764;SDS011;30484;52.382;5.260;2023-04-16T08:32:11;9.43;;;3.63;;
44764;SDS011;30484;52.382;5.260;2023-04-16T08:34:41;7.47;;;3.97;;
44764;SDS011;30484;52.382;5.260;2023-04-16T08:37:09;10.07;;;4.35;;
44764;SDS011;30484;52.382;5.260;2023-04-16T08:39:38;8.55;;;3.97;;
44764;SDS011;30484;52.382;5.260;2023-04-16T08:42:10;10.88;;;4.40;;
44764;SDS011;30484;52.382;5.260;2023-04-16T08:44:51;14.10;;;5.15;;
44764;SDS011;30484;52.382;5.260;2023-04-16T08:47:28;9.77;;;4.53;;
44764;SDS011;30484;52.382;5.260;2023-04-16T08:50:02;11.63;;;5.03;;
44764;SDS011;30484;52.382;5.260;2023-04-16T08:52:32;10.13;;;5.18;;
44764;SDS011;30484;52.382;5.260;2023-04-16T08:55:05;11.65;;;4.70;;
44764;SDS011;30484;52.382;5.260;2023-04-16T08:57:41;10.00;;;4.68;;
44764;SDS011;30484;52.382;5.260;2023-04-16T09:00:16;11.25;;;4.45;;
44764;SDS011;30484;52.382;5.260;2023-04-16T09:02:47;11.00;;;5.13;;
44764;SDS011;30484;52.382;5.260;2023-04-16T09:05:17;15.27;;;5.30;;
44764;SDS011;30484;52.382;5.260;2023-04-16T09:07:47;12.60;;;5.93;;
44764;SDS011;30484;52.382;5.260;2023-04-16T09:10:16;13.52;;;6.22;;
44764;SDS011;30484;52.382;5.260;2023-04-16T09:12:45;12.63;;;6.45;;
44764;SDS011;30484;52.382;5.260;2023-04-16T09:15:14;13.55;;;6.43;;
44764;SDS011;30484;52.382;5.260;2023-04-16T09:17:44;12.63;;;6.47;;
44764;SDS011;30484;52.382;5.260;2023-04-16T09:20:13;17.05;;;6.85;;
44764;SDS011;30484;52.382;5.260;2023-04-16T09:22:42;14.57;;;6.55;;
44764;SDS011;30484;52.382;5.260;2023-04-16T09:25:11;18.60;;;7.75;;
44764;SDS011;30484;52.382;5.260;2023-04-16T09:27:41;22.77;;;7.90;;
44764;SDS011;30484;52.382;5.260;2023-04-16T09:30:23;19.75;;;7.95;;
44764;SDS011;30484;52.382;5.260;2023-04-16T09:33:10;18.35;;;7.82;;
44764;SDS011;30484;52.382;5.260;2023-04-16T09:35:44;25.02;;;9.95;;
44764;SDS011;30484;52.382;5.260;2023-04-16T09:38:14;29.92;;;10.75;;
44764;SDS011;30484;52.382;5.260;2023-04-16T09:40:43;24.65;;;10.70;;
44764;SDS011;30484;52.382;5.260;2023-04-16T09:43:13;32.53;;;11.60;;
44764;SDS011;30484;52.382;5.260;2023-04-16T09:45:47;30.60;;;11.93;;
44764;SDS011;30484;52.382;5.260;2023-04-16T09:48:28;31.90;;;12.35;;
44764;SDS011;30484;52.382;5.260;2023-04-16T09:51:00;30.67;;;12.70;;
44764;SDS011;30484;52.382;5.260;2023-04-16T09:53:32;33.10;;;12.63;;
44764;SDS011;30484;52.382;5.260;2023-04-16T09:56:02;33.50;;;12.45;;
44764;SDS011;30484;52.382;5.260;2023-04-16T09:58:34;32.72;;;12.80;;
44764;SDS011;30484;52.382;5.260;2023-04-16T10:01:04;34.58;;;12.75;;
44764;SDS011;30484;52.382;5.260;2023-04-16T10:03:39;31.10;;;12.00;;
44764;SDS011;30484;52.382;5.260;2023-04-16T10:06:13;33.60;;;12.30;;
44764;SDS011;30484;52.382;5.260;2023-04-16T10:08:43;44.83;;;12.57;;
44764;SDS011;30484;52.382;5.260;2023-04-16T10:11:15;40.50;;;12.85;;
44764;SDS011;30484;52.382;5.260;2023-04-16T10:13:46;39.08;;;12.45;;
44764;SDS011;30484;52.382;5.260;2023-04-16T10:16:18;39.13;;;12.70;;
44764;SDS011;30484;52.382;5.260;2023-04-16T10:18:50;40.13;;;12.50;;
44764;SDS011;30484;52.382;5.260;2023-04-16T10:21:19;29.35;;;12.60;;
44764;SDS011;30484;52.382;5.260;2023-04-16T10:23:59;39.58;;;13.30;;
44764;SDS011;30484;52.382;5.260;2023-04-16T10:26:31;23.42;;;10.43;;
44764;SDS011;30484;52.382;5.260;2023-04-16T10:29:01;27.67;;;11.20;;
44764;SDS011;30484;52.382;5.260;2023-04-16T10:31:34;23.42;;;9.70;;
44764;SDS011;30484;52.382;5.260;2023-04-16T10:34:07;26.50;;;8.73;;
44764;SDS011;30484;52.382;5.260;2023-04-16T10:36:39;17.65;;;7.97;;
44764;SDS011;30484;52.382;5.260;2023-04-16T10:39:09;14.70;;;8.15;;
44764;SDS011;30484;52.382;5.260;2023-04-16T10:41:42;20.60;;;7.88;;
44764;SDS011;30484;52.382;5.260;2023-04-16T10:44:12;21.45;;;8.18;;
44764;SDS011;30484;52.382;5.260;2023-04-16T10:46:44;16.85;;;7.97;;
44764;SDS011;30484;52.382;5.260;2023-04-16T10:49:18;19.27;;;8.55;;
44764;SDS011;30484;52.382;5.260;2023-04-16T10:51:54;15.48;;;7.07;;
44764;SDS011;30484;52.382;5.260;2023-04-16T10:54:25;22.35;;;7.65;;
44764;SDS011;30484;52.382;5.260;2023-04-16T10:56:56;15.15;;;7.82;;
44764;SDS011;30484;52.382;5.260;2023-04-16T10:59:30;17.17;;;7.03;;
44764;SDS011;30484;52.382;5.260;2023-04-16T11:02:01;17.70;;;6.88;;
44764;SDS011;30484;52.382;5.260;2023-04-16T11:04:38;13.10;;;6.55;;
44764;SDS011;30484;52.382;5.260;2023-04-16T11:07:16;21.58;;;7.65;;
44764;SDS011;30484;52.382;5.260;2023-04-16T11:09:50;15.10;;;7.40;;
44764;SDS011;30484;52.382;5.260;2023-04-16T11:12:23;21.17;;;7.53;;
44764;SDS011;30484;52.382;5.260;2023-04-16T11:14:57;18.80;;;7.65;;
44764;SDS011;30484;52.382;5.260;2023-04-16T11:17:30;19.88;;;7.18;;
44764;SDS011;30484;52.382;5.260;2023-04-16T11:20:06;15.82;;;7.57;;
44764;SDS011;30484;52.382;5.260;2023-04-16T11:22:46;14.07;;;7.57;;
44764;SDS011;30484;52.382;5.260;2023-04-16T11:25:18;16.95;;;7.65;;
44764;SDS011;30484;52.382;5.260;2023-04-16T11:27:48;23.65;;;9.52;;
44764;SDS011;30484;52.382;5.260;2023-04-16T11:30:17;21.75;;;8.68;;
44764;SDS011;30484;52.382;5.260;2023-04-16T11:32:56;20.73;;;8.75;;
44764;SDS011;30484;52.382;5.260;2023-04-16T11:35:27;31.27;;;10.82;;
44764;SDS011;30484;52.382;5.260;2023-04-16T11:37:56;25.05;;;10.38;;
44764;SDS011;30484;52.382;5.260;2023-04-16T11:40:28;25.02;;;10.48;;
44764;SDS011;30484;52.382;5.260;2023-04-16T11:43:00;23.65;;;10.77;;
44764;SDS011;30484;52.382;5.260;2023-04-16T11:45:30;32.65;;;11.98;;
44764;SDS011;30484;52.382;5.260;2023-04-16T11:48:00;32.60;;;12.40;;
44764;SDS011;30484;52.382;5.260;2023-04-16T11:50:32;36.95;;;12.23;;
44764;SDS011;30484;52.382;5.260;2023-04-16T11:53:02;29.08;;;12.82;;
44764;SDS011;30484;52.382;5.260;2023-04-16T11:55:33;42.50;;;12.07;;
44764;SDS011;30484;52.382;5.260;2023-04-16T11:58:11;33.35;;;12.77;;
44764;SDS011;30484;52.382;5.260;2023-04-16T12:00:42;37.25;;;12.45;;
44764;SDS011;30484;52.382;5.260;2023-04-16T12:03:15;39.33;;;11.88;;
44764;SDS011;30484;52.382;5.260;2023-04-16T12:05:48;35.70;;;12.60;;
44764;SDS011;30484;52.382;5.260;2023-04-16T12:08:27;31.75;;;12.65;;
44764;SDS011;30484;52.382;5.260;2023-04-16T12:10:57;41.60;;;13.27;;
44764;SDS011;30484;52.382;5.260;2023-04-16T12:13:26;42.83;;;12.70;;
44764;SDS011;30484;52.382;5.260;2023-04-16T12:15:56;33.08;;;11.90;;
44764;SDS011;30484;52.382;5.260;2023-04-16T12:18:24;35.38;;;11.43;;
44764;SDS011;30484;52.382;5.260;2023-04-16T12:20:57;34.22;;;11.68;;
44764;SDS011;30484;52.382;5.260;2023-04-16T12:23:28;35.22;;;12.15;;
44764;SDS011;30484;52.382;5.260;2023-04-16T12:26:05;39.53;;;13.30;;
44764;SDS011;30484;52.382;5.260;2023-04-16T12:28:36;35.23;;;11.47;;
44764;SDS011;30484;52.382;5.260;2023-04-16T12:31:05;38.45;;;12.10;;
44764;SDS011;30484;52.382;5.260;2023-04-16T12:33:39;30.65;;;11.52;;
44764;SDS011;30484;52.382;5.260;2023-04-16T12:36:19;31.80;;;10.90;;
44764;SDS011;30484;52.382;5.260;2023-04-16T12:38:48;34.80;;;11.10;;
44764;SDS011;30484;52.382;5.260;2023-04-16T12:41:17;32.15;;;11.13;;
44764;SDS011;30484;52.382;5.260;2023-04-16T12:43:47;34.10;;;10.80;;
44764;SDS011;30484;52.382;5.260;2023-04-16T12:46:16;29.70;;;10.65;;
44764;SDS011;30484;52.382;5.260;2023-04-16T12:48:45;27.40;;;9.88;;
44764;SDS011;30484;52.382;5.260;2023-04-16T12:51:15;29.90;;;10.48;;
44764;SDS011;30484;52.382;5.260;2023-04-16T12:53:45;24.95;;;9.45;;
44764;SDS011;30484;52.382;5.260;2023-04-16T12:56:15;26.40;;;10.07;;
44764;SDS011;30484;52.382;5.260;2023-04-16T12:58:44;30.13;;;9.98;;
44764;SDS011;30484;52.382;5.260;2023-04-16T13:01:16;26.67;;;8.85;;
44764;SDS011;30484;52.382;5.260;2023-04-16T13:03:45;32.38;;;9.68;;
44764;SDS011;30484;52.382;5.260;2023-04-16T13:06:15;28.80;;;9.57;;
44764;SDS011;30484;52.382;5.260;2023-04-16T13:08:46;30.05;;;9.45;;
44764;SDS011;30484;52.382;5.260;2023-04-16T13:11:15;28.75;;;9.30;;
44764;SDS011;30484;52.382;5.260;2023-04-16T13:13:44;21.85;;;8.77;;
44764;SDS011;30484;52.382;5.260;2023-04-16T13:16:13;24.88;;;8.93;;
44764;SDS011;30484;52.382;5.260;2023-04-16T13:18:41;23.00;;;9.02;;
44764;SDS011;30484;52.382;5.260;2023-04-16T13:21:10;22.70;;;8.98;;
44764;SDS011;30484;52.382;5.260;2023-04-16T13:23:39;24.08;;;8.80;;
44764;SDS011;30484;52.382;5.260;2023-04-16T13:26:12;25.13;;;9.25;;
44764;SDS011;30484;52.382;5.260;2023-04-16T13:28:41;24.58;;;9.30;;
44764;SDS011;30484;52.382;5.260;2023-04-16T13:31:10;29.27;;;9.88;;
44764;SDS011;30484;52.382;5.260;2023-04-16T13:33:39;22.80;;;9.18;;
44764;SDS011;30484;52.382;5.260;2023-04-16T13:36:08;30.33;;;9.68;;
44764;SDS011;30484;52.382;5.260;2023-04-16T13:38:37;21.80;;;9.98;;
44764;SDS011;30484;52.382;5.260;2023-04-16T13:41:09;28.33;;;9.68;;
44764;SDS011;30484;52.382;5.260;2023-04-16T13:43:40;20.38;;;8.63;;
44764;SDS011;30484;52.382;5.260;2023-04-16T13:46:08;22.35;;;8.73;;
44764;SDS011;30484;52.382;5.260;2023-04-16T13:48:37;26.23;;;9.35;;
44764;SDS011;30484;52.382;5.260;2023-04-16T13:51:06;25.67;;;8.80;;
44764;SDS011;30484;52.382;5.260;2023-04-16T13:53:35;23.52;;;9.63;;
44764;SDS011;30484;52.382;5.260;2023-04-16T13:56:04;24.67;;;9.55;;
44764;SDS011;30484;52.382;5.260;2023-04-16T13:58:33;27.30;;;10.00;;
44764;SDS011;30484;52.382;5.260;2023-04-16T14:01:03;23.23;;;9.65;;
44764;SDS011;30484;52.382;5.260;2023-04-16T14:03:32;21.85;;;9.65;;
44764;SDS011;30484;52.382;5.260;2023-04-16T14:06:04;19.88;;;9.77;;
44764;SDS011;30484;52.382;5.260;2023-04-16T14:08:33;26.75;;;10.10;;
44764;SDS011;30484;52.382;5.260;2023-04-16T14:11:03;25.90;;;9.77;;
44764;SDS011;30484;52.382;5.260;2023-04-16T14:13:36;26.98;;;10.65;;
44764;SDS011;30484;52.382;5.260;2023-04-16T14:16:08;23.17;;;10.80;;
44764;SDS011;30484;52.382;5.260;2023-04-16T14:18:37;25.45;;;11.25;;
44764;SDS011;30484;52.382;5.260;2023-04-16T14:21:07;22.48;;;10.70;;
44764;SDS011;30484;52.382;5.260;2023-04-16T14:23:36;23.83;;;10.27;;
44764;SDS011;30484;52.382;5.260;2023-04-16T14:26:05;25.70;;;10.70;;
44764;SDS011;30484;52.382;5.260;2023-04-16T14:28:34;30.17;;;11.40;;
44764;SDS011;30484;52.382;5.260;2023-04-16T14:31:03;29.08;;;11.00;;
44764;SDS011;30484;52.382;5.260;2023-04-16T14:33:33;24.00;;;10.60;;
44764;SDS011;30484;52.382;5.260;2023-04-16T14:36:03;24.40;;;10.45;;
44764;SDS011;30484;52.382;5.260;2023-04-16T14:38:32;24.88;;;9.88;;
44764;SDS011;30484;52.382;5.260;2023-04-16T14:41:01;32.33;;;10.93;;
44764;SDS011;30484;52.382;5.260;2023-04-16T14:43:30;24.92;;;10.88;;
44764;SDS011;30484;52.382;5.260;2023-04-16T14:45:58;23.98;;;11.07;;
44764;SDS011;30484;52.382;5.260;2023-04-16T14:48:28;30.45;;;11.68;;
44764;SDS011;30484;52.382;5.260;2023-04-16T14:50:58;28.98;;;11.60;;
44764;SDS011;30484;52.382;5.260;2023-04-16T14:53:27;28.50;;;10.55;;